createdAt,value
2023-05-17T00:01:48.660Z,19.47
2023-05-17T00:04:17.142Z,19.50
2023-05-17T00:06:44.780Z,19.43
2023-05-17T00:09:11.942Z,19.39
2023-05-17T00:11:39.057Z,19.43
2023-05-17T00:14:06.487Z,19.42
2023-05-17T00:16:34.272Z,19.31
2023-05-17T00:19:01.654Z,19.31
2023-05-17T00:21:28.701Z,19.40
2023-05-17T00:23:55.701Z,19.39
2023-05-17T00:26:22.934Z,19.24
2023-05-17T00:28:49.945Z,19.35
2023-05-17T00:31:16.943Z,19.42
2023-05-17T00:33:44.584Z,19.31
2023-05-17T00:36:11.763Z,19.33
2023-05-17T00:38:38.806Z,19.34
2023-05-17T00:41:06.275Z,19.30
2023-05-17T00:43:33.305Z,19.16
2023-05-17T00:46:00.347Z,19.20
2023-05-17T00:48:29.313Z,19.38
2023-05-17T00:50:56.994Z,19.33
2023-05-17T00:53:24.342Z,19.30
2023-05-17T00:55:51.790Z,19.16
2023-05-17T00:58:19.231Z,19.25
2023-05-17T01:00:47.341Z,19.21
2023-05-17T01:03:15.037Z,19.09
2023-05-17T01:05:42.359Z,19.15
2023-05-17T01:08:09.358Z,19.14
2023-05-17T01:10:54.732Z,19.52
2023-05-17T01:14:08.121Z,19.36
2023-05-17T01:16:50.724Z,19.28
2023-05-17T01:20:06.417Z,19.41
2023-05-17T01:23:13.595Z,19.41
2023-05-17T01:26:10.972Z,19.40
2023-05-17T01:28:39.117Z,19.13
2023-05-17T01:31:07.887Z,19.24
2023-05-17T01:33:38.839Z,19.29
2023-05-17T01:36:08.660Z,19.17
2023-05-17T01:38:36.125Z,19.07
2023-05-17T01:41:16.614Z,19.23
2023-05-17T01:44:25.117Z,19.35
2023-05-17T01:47:02.048Z,19.22
2023-05-17T01:49:35.500Z,19.26
2023-05-17T01:52:14.105Z,19.35
2023-05-17T01:55:22.141Z,19.28
2023-05-17T01:57:54.334Z,19.08
2023-05-17T02:00:22.934Z,19.24
2023-05-17T02:02:50.970Z,18.65
2023-05-17T02:05:18.480Z,18.92
2023-05-17T02:07:45.573Z,18.76
2023-05-17T02:10:12.943Z,18.88
2023-05-17T02:12:44.040Z,18.77
2023-05-17T02:15:12.078Z,18.79
2023-05-17T02:17:40.675Z,18.69
2023-05-17T02:20:09.621Z,18.86
2023-05-17T02:22:37.255Z,18.48
2023-05-17T02:25:04.503Z,18.74
2023-05-17T02:27:31.634Z,18.57
2023-05-17T02:30:01.905Z,18.62
2023-05-17T02:32:29.844Z,18.67
2023-05-17T02:34:57.341Z,18.76
2023-05-17T02:37:24.911Z,18.52
2023-05-17T02:39:52.327Z,18.52
2023-05-17T02:42:19.379Z,18.50
2023-05-17T02:44:48.462Z,18.39
2023-05-17T02:47:15.450Z,18.18
2023-05-17T02:49:42.846Z,18.23
2023-05-17T02:52:10.561Z,18.44
2023-05-17T02:54:37.986Z,18.16
2023-05-17T02:57:05.867Z,18.45
2023-05-17T02:59:33.300Z,18.09
2023-05-17T03:02:00.743Z,18.12
2023-05-17T03:04:28.389Z,18.04
2023-05-17T03:06:56.048Z,18.12
2023-05-17T03:09:23.752Z,18.17
2023-05-17T03:11:52.354Z,18.11
2023-05-17T03:14:23.934Z,18.06
2023-05-17T03:16:51.336Z,18.14
2023-05-17T03:19:18.955Z,18.02
2023-05-17T03:21:46.680Z,18.05
2023-05-17T03:24:14.076Z,18.03
2023-05-17T03:26:41.842Z,17.95
2023-05-17T03:29:11.114Z,18.09
2023-05-17T03:31:41.004Z,17.96
2023-05-17T03:34:08.108Z,18.09
2023-05-17T03:36:36.320Z,17.67
2023-05-17T03:39:03.794Z,18.04
2023-05-17T03:41:32.229Z,17.97
2023-05-17T03:44:00.182Z,17.77
2023-05-17T03:46:27.282Z,17.89
2023-05-17T03:48:54.943Z,17.94
2023-05-17T03:51:22.557Z,17.90
2023-05-17T03:53:58.769Z,18.08
2023-05-17T03:56:27.162Z,17.80
2023-05-17T03:58:54.855Z,17.83
2023-05-17T04:01:23.131Z,17.70
2023-05-17T04:03:50.653Z,18.00
2023-05-17T04:06:20.559Z,17.77
2023-05-17T04:08:49.952Z,17.95
2023-05-17T04:11:23.523Z,17.81
2023-05-17T04:13:51.636Z,17.72
2023-05-17T04:16:19.974Z,17.87
2023-05-17T04:18:47.687Z,17.83
2023-05-17T04:21:14.876Z,17.71
2023-05-17T04:23:42.086Z,17.88
2023-05-17T04:26:09.983Z,17.89
2023-05-17T04:28:39.270Z,17.91
2023-05-17T04:31:10.052Z,18.22
2023-05-17T04:33:38.331Z,18.06
2023-05-17T04:36:08.775Z,18.06
2023-05-17T04:38:36.661Z,18.01
2023-05-17T04:41:06.620Z,18.07
2023-05-17T04:43:36.836Z,18.00
2023-05-17T04:46:07.155Z,18.11
2023-05-17T04:48:35.087Z,18.10
2023-05-17T04:51:04.435Z,18.30
2023-05-17T04:53:32.469Z,18.13
2023-05-17T04:56:04.191Z,18.22
2023-05-17T04:58:32.012Z,17.77
2023-05-17T05:01:00.375Z,17.96
2023-05-17T05:03:27.778Z,17.75
2023-05-17T05:05:55.861Z,17.99
2023-05-17T05:08:24.149Z,18.14
2023-05-17T05:10:52.607Z,17.96
2023-05-17T05:13:23.153Z,18.01
2023-05-17T05:15:51.950Z,18.09
2023-05-17T05:18:19.146Z,18.08
2023-05-17T05:20:49.070Z,18.18
2023-05-17T05:23:18.841Z,18.26
2023-05-17T05:25:48.445Z,17.92
2023-05-17T05:28:16.082Z,17.85
2023-05-17T05:30:44.160Z,17.98
2023-05-17T05:33:12.875Z,18.22
2023-05-17T05:35:40.481Z,18.19
2023-05-17T05:38:08.163Z,18.38
2023-05-17T05:40:36.757Z,18.03
2023-05-17T05:43:03.842Z,18.02
2023-05-17T05:45:32.459Z,18.11
2023-05-17T05:48:04.274Z,17.98
2023-05-17T05:50:32.221Z,17.75
2023-05-17T05:53:17.503Z,18.71
2023-05-17T05:55:50.476Z,17.85
2023-05-17T05:58:17.945Z,17.72
2023-05-17T06:00:46.208Z,18.08
2023-05-17T06:03:14.555Z,17.83
2023-05-17T06:05:42.086Z,18.04
2023-05-17T06:08:09.320Z,18.03
2023-05-17T06:10:36.714Z,18.30
2023-05-17T06:13:04.130Z,18.22
2023-05-17T06:15:31.969Z,18.00
2023-05-17T06:17:59.566Z,18.00
2023-05-17T06:20:27.283Z,18.17
2023-05-17T06:22:54.493Z,18.00
2023-05-17T06:25:22.061Z,18.17
2023-05-17T06:27:49.023Z,17.77
2023-05-17T06:30:16.402Z,18.01
2023-05-17T06:32:43.544Z,17.84
2023-05-17T06:35:11.158Z,17.82
2023-05-17T06:37:39.251Z,17.87
2023-05-17T06:40:16.097Z,17.87
2023-05-17T06:42:46.959Z,17.99
2023-05-17T06:45:14.038Z,17.92
2023-05-17T06:47:41.355Z,17.58
2023-05-17T06:50:09.320Z,17.50
2023-05-17T06:52:36.782Z,17.45
2023-05-17T06:55:04.444Z,17.17
2023-05-17T06:57:31.814Z,18.22
2023-05-17T06:59:58.859Z,17.54
2023-05-17T07:02:26.365Z,17.76
2023-05-17T07:05:02.340Z,17.51
2023-05-17T07:07:29.804Z,17.56
2023-05-17T07:09:56.767Z,17.46
2023-05-17T07:12:24.166Z,17.43
2023-05-17T07:14:51.298Z,16.79
2023-05-17T07:17:18.748Z,17.63
2023-05-17T07:19:46.380Z,17.24
2023-05-17T07:22:13.423Z,17.52
2023-05-17T07:24:40.412Z,18.18
2023-05-17T07:27:07.894Z,17.81
2023-05-17T07:29:34.878Z,17.69
2023-05-17T07:32:01.941Z,17.31
2023-05-17T07:34:30.432Z,17.53
2023-05-17T07:36:57.900Z,17.89
2023-05-17T07:39:28.595Z,18.27
2023-05-17T07:41:56.056Z,16.97
2023-05-17T07:44:23.546Z,17.68
2023-05-17T07:46:51.035Z,17.71
2023-05-17T07:49:18.201Z,17.33
2023-05-17T07:51:45.644Z,18.01
2023-05-17T07:54:29.973Z,18.41
2023-05-17T07:56:57.662Z,18.30
2023-05-17T07:59:25.295Z,18.15
2023-05-17T08:01:52.923Z,17.95
2023-05-17T08:04:20.524Z,18.17
2023-05-17T08:06:48.446Z,18.62
2023-05-17T08:09:16.587Z,18.10
2023-05-17T08:11:46.564Z,18.02
2023-05-17T08:14:15.567Z,18.63
2023-05-17T08:16:46.846Z,18.57
2023-05-17T08:19:14.979Z,19.71
2023-05-17T08:21:45.238Z,18.48
2023-05-17T08:24:13.016Z,18.71
2023-05-17T08:26:40.530Z,18.41
2023-05-17T08:29:07.526Z,18.62
2023-05-17T08:31:34.952Z,18.41
2023-05-17T08:34:03.269Z,18.06
2023-05-17T08:36:30.502Z,18.82
2023-05-17T08:38:57.653Z,18.84
2023-05-17T08:41:24.598Z,18.50
2023-05-17T08:43:52.980Z,18.18
2023-05-17T08:46:21.962Z,18.36
2023-05-17T08:48:53.544Z,19.00
2023-05-17T08:51:22.122Z,18.28
2023-05-17T08:53:50.593Z,18.79
2023-05-17T08:56:21.748Z,19.69
2023-05-17T08:58:56.407Z,18.94
2023-05-17T09:01:27.025Z,18.55
2023-05-17T09:03:56.094Z,18.99
2023-05-17T09:06:24.394Z,19.49
2023-05-17T09:08:55.418Z,19.39
2023-05-17T09:11:28.526Z,19.19
2023-05-17T09:14:01.095Z,18.22
2023-05-17T09:16:30.194Z,18.32
2023-05-17T09:18:58.603Z,19.37
2023-05-17T09:21:27.609Z,19.28
2023-05-17T09:24:05.682Z,19.66
2023-05-17T09:26:40.306Z,19.96
2023-05-17T09:29:15.781Z,18.91
2023-05-17T09:31:43.680Z,19.57
2023-05-17T09:34:11.777Z,19.57
2023-05-17T09:36:43.568Z,19.98
2023-05-17T09:39:13.633Z,19.69
2023-05-17T09:41:49.904Z,19.74
2023-05-17T09:44:17.605Z,20.20
2023-05-17T09:46:48.149Z,20.32
2023-05-17T09:49:18.626Z,20.30
2023-05-17T09:51:48.739Z,20.07
2023-05-17T09:54:17.622Z,20.53
2023-05-17T09:56:45.277Z,21.13
2023-05-17T09:59:17.077Z,21.03
2023-05-17T10:01:46.149Z,20.23
2023-05-17T10:04:14.253Z,19.53
2023-05-17T10:06:49.579Z,19.97
2023-05-17T10:09:22.486Z,20.13
2023-05-17T10:11:52.733Z,19.93
2023-05-17T10:14:27.789Z,20.05
2023-05-17T10:16:56.281Z,19.13
2023-05-17T10:19:25.393Z,20.05
2023-05-17T10:21:54.667Z,20.86
2023-05-17T10:24:22.349Z,20.16
2023-05-17T10:26:52.810Z,20.53
2023-05-17T10:29:21.259Z,20.52
2023-05-17T10:31:51.221Z,19.78
2023-05-17T10:34:20.017Z,19.86
2023-05-17T10:36:49.575Z,20.22
2023-05-17T10:39:16.891Z,20.10
2023-05-17T10:41:46.893Z,20.12
2023-05-17T10:44:16.368Z,20.46
2023-05-17T10:46:58.528Z,19.36
2023-05-17T10:49:33.448Z,20.36
2023-05-17T10:52:18.968Z,19.91
2023-05-17T10:54:49.505Z,20.16
2023-05-17T10:57:22.238Z,20.75
2023-05-17T11:00:01.604Z,20.53
2023-05-17T11:02:29.244Z,21.04
2023-05-17T11:04:57.851Z,19.88
2023-05-17T11:07:29.655Z,20.06
2023-05-17T11:10:14.310Z,19.65
2023-05-17T11:12:49.412Z,20.11
2023-05-17T11:15:17.685Z,19.89
2023-05-17T11:17:44.579Z,19.44
2023-05-17T11:20:32.921Z,20.45
2023-05-17T11:23:12.739Z,19.66
2023-05-17T11:25:40.755Z,19.87
2023-05-17T11:28:22.474Z,19.32
2023-05-17T11:30:54.042Z,19.31
2023-05-17T11:33:38.381Z,19.44
2023-05-17T11:36:15.393Z,19.27
2023-05-17T11:38:42.941Z,19.20
2023-05-17T11:41:26.976Z,19.76
2023-05-17T11:43:55.333Z,19.70
2023-05-17T11:46:24.218Z,20.22
2023-05-17T11:48:53.187Z,20.59
2023-05-17T11:51:23.815Z,20.72
2023-05-17T11:53:55.464Z,21.42
2023-05-17T11:56:35.711Z,21.11
2023-05-17T11:59:10.317Z,20.63
2023-05-17T12:01:46.041Z,21.18
2023-05-17T12:04:13.354Z,20.86
2023-05-17T12:06:41.360Z,20.35
2023-05-17T12:09:11.215Z,21.12
2023-05-17T12:11:39.508Z,20.47
2023-05-17T12:14:07.315Z,20.24
2023-05-17T12:16:40.816Z,20.51
2023-05-17T12:19:21.182Z,20.60
2023-05-17T12:21:49.414Z,20.52
2023-05-17T12:24:17.185Z,20.40
2023-05-17T12:26:45.983Z,20.67
2023-05-17T12:29:14.802Z,20.75
2023-05-17T12:31:50.384Z,19.57
2023-05-17T12:34:18.623Z,20.36
2023-05-17T12:36:46.597Z,19.60
2023-05-17T12:39:14.509Z,20.18
2023-05-17T12:41:42.891Z,19.89
2023-05-17T12:44:15.524Z,20.15
2023-05-17T12:46:44.053Z,20.59
2023-05-17T12:49:12.354Z,20.18
2023-05-17T12:51:46.886Z,19.82
2023-05-17T12:54:25.366Z,20.00
2023-05-17T12:56:53.296Z,19.78
2023-05-17T12:59:21.213Z,20.38
2023-05-17T13:01:51.548Z,20.64
2023-05-17T13:04:20.904Z,20.07
2023-05-17T13:06:51.610Z,20.02
2023-05-17T13:09:21.833Z,20.60
2023-05-17T13:11:56.070Z,20.58
2023-05-17T13:14:44.502Z,20.66
2023-05-17T13:17:27.696Z,20.18
2023-05-17T13:19:57.791Z,20.41
2023-05-17T13:22:25.449Z,20.39
2023-05-17T13:24:53.089Z,19.27
2023-05-17T13:27:20.601Z,19.88
2023-05-17T13:29:47.587Z,19.86
2023-05-17T13:32:14.570Z,19.73
2023-05-17T13:34:42.256Z,20.21
2023-05-17T13:37:11.900Z,19.78
2023-05-17T13:39:40.979Z,20.22
2023-05-17T13:42:08.606Z,19.98
2023-05-17T13:44:36.240Z,20.18
2023-05-17T13:47:03.776Z,20.59
2023-05-17T13:49:31.206Z,20.42
2023-05-17T13:51:58.219Z,20.47
2023-05-17T13:54:25.604Z,20.56
2023-05-17T13:56:53.740Z,20.39
2023-05-17T13:59:20.866Z,21.28
2023-05-17T14:01:47.983Z,21.03
2023-05-17T14:04:15.041Z,20.85
2023-05-17T14:06:42.615Z,20.76
2023-05-17T14:09:10.403Z,20.33
2023-05-17T14:11:38.072Z,20.30
2023-05-17T14:14:05.613Z,20.26
2023-05-17T14:16:33.159Z,20.31
2023-05-17T14:19:04.259Z,20.04
2023-05-17T14:21:32.524Z,20.22
2023-05-17T14:24:00.261Z,20.51
2023-05-17T14:26:27.951Z,19.97
2023-05-17T14:28:55.037Z,20.01
2023-05-17T14:31:22.519Z,19.93
2023-05-17T14:33:49.983Z,20.42
2023-05-17T14:36:17.585Z,19.81
2023-05-17T14:38:44.997Z,19.91
2023-05-17T14:41:12.482Z,20.01
2023-05-17T14:43:40.121Z,20.26
2023-05-17T14:46:07.791Z,19.73
2023-05-17T14:48:35.015Z,18.92
2023-05-17T14:51:03.469Z,20.34
2023-05-17T14:53:31.081Z,20.24
2023-05-17T14:55:58.957Z,20.36
2023-05-17T14:58:26.385Z,20.23
2023-05-17T15:01:04.985Z,20.32
2023-05-17T15:03:35.044Z,20.78
2023-05-17T15:06:06.964Z,21.37
2023-05-17T15:08:36.122Z,21.48
2023-05-17T15:11:03.393Z,21.00
2023-05-17T15:13:31.152Z,21.56
2023-05-17T15:15:58.758Z,21.56
2023-05-17T15:18:26.291Z,20.78
2023-05-17T15:20:53.439Z,21.04
2023-05-17T15:23:20.981Z,21.17
2023-05-17T15:25:48.138Z,20.80
2023-05-17T15:28:16.030Z,21.16
2023-05-17T15:30:43.101Z,21.05
2023-05-17T15:33:11.173Z,21.29
2023-05-17T15:35:44.833Z,21.43
2023-05-17T15:38:12.537Z,22.07
2023-05-17T15:40:39.669Z,21.84
2023-05-17T15:43:06.729Z,22.49
2023-05-17T15:45:34.037Z,22.41
2023-05-17T15:48:02.270Z,22.66
2023-05-17T15:50:29.496Z,22.06
2023-05-17T15:52:56.528Z,22.75
2023-05-17T15:55:23.813Z,23.24
2023-05-17T15:57:50.978Z,22.97
2023-05-17T16:00:18.288Z,22.25
2023-05-17T16:02:45.365Z,22.10
2023-05-17T16:05:12.762Z,22.70
2023-05-17T16:07:39.866Z,22.24
2023-05-17T16:10:07.953Z,21.76
2023-05-17T16:12:35.105Z,22.28
2023-05-17T16:15:02.223Z,22.55
2023-05-17T16:17:30.477Z,22.24
2023-05-17T16:19:57.799Z,21.95
2023-05-17T16:22:25.252Z,22.02
2023-05-17T16:24:57.049Z,22.08
2023-05-17T16:27:24.496Z,22.45
2023-05-17T16:29:51.622Z,21.85
2023-05-17T16:32:18.770Z,22.07
2023-05-17T16:34:45.872Z,22.21
2023-05-17T16:37:13.259Z,21.68
2023-05-17T16:39:40.538Z,21.40
2023-05-17T16:42:07.628Z,21.63
2023-05-17T16:44:35.604Z,22.01
2023-05-17T16:47:03.843Z,22.00
2023-05-17T16:49:31.077Z,22.29
2023-05-17T16:51:58.170Z,22.35
2023-05-17T16:54:28.177Z,22.28
2023-05-17T16:56:58.084Z,22.86
2023-05-17T16:59:25.164Z,22.15
2023-05-17T17:01:52.286Z,22.41
2023-05-17T17:04:19.531Z,21.93
2023-05-17T17:06:46.976Z,22.32
2023-05-17T17:09:14.319Z,22.17
2023-05-17T17:11:41.766Z,21.91
2023-05-17T17:14:09.089Z,21.87
2023-05-17T17:16:36.292Z,22.20
2023-05-17T17:19:06.526Z,22.26
2023-05-17T17:21:36.782Z,22.10
2023-05-17T17:24:07.627Z,22.82
2023-05-17T17:26:35.547Z,22.49
2023-05-17T17:29:08.211Z,22.66
2023-05-17T17:31:35.565Z,22.44
2023-05-17T17:34:02.820Z,21.64
2023-05-17T17:36:31.172Z,21.54
2023-05-17T17:38:58.205Z,22.23
2023-05-17T17:41:26.174Z,21.45
2023-05-17T17:43:53.214Z,21.64
2023-05-17T17:46:20.449Z,22.29
2023-05-17T17:48:47.453Z,21.85
2023-05-17T17:51:17.663Z,21.55
2023-05-17T17:53:44.833Z,21.69
2023-05-17T17:56:12.072Z,22.06
2023-05-17T17:58:39.180Z,22.41
2023-05-17T18:01:06.319Z,21.95
2023-05-17T18:03:33.688Z,22.05
2023-05-17T18:06:01.239Z,22.10
2023-05-17T18:08:28.259Z,22.20
2023-05-17T18:10:55.880Z,22.43
2023-05-17T18:13:23.777Z,22.20
2023-05-17T18:15:51.235Z,21.99
2023-05-17T18:18:18.273Z,22.06
2023-05-17T18:20:45.545Z,21.41
2023-05-17T18:23:12.592Z,21.83
2023-05-17T18:25:39.622Z,21.58
2023-05-17T18:28:08.734Z,21.82
2023-05-17T18:30:36.483Z,21.68
2023-05-17T18:33:04.212Z,22.03
2023-05-17T18:35:34.348Z,22.09
2023-05-17T18:38:01.615Z,22.02
2023-05-17T18:40:28.958Z,22.02
2023-05-17T18:42:56.665Z,21.91
2023-05-17T18:45:24.222Z,21.55
2023-05-17T18:47:51.865Z,21.70
2023-05-17T18:50:33.931Z,21.87
2023-05-17T18:53:01.058Z,22.03
2023-05-17T18:55:28.785Z,21.37
2023-05-17T18:57:56.317Z,21.44
2023-05-17T19:00:26.428Z,21.53
2023-05-17T19:02:53.698Z,21.37
2023-05-17T19:05:25.128Z,21.44
2023-05-17T19:07:55.388Z,21.39
2023-05-17T19:10:22.914Z,21.51
2023-05-17T19:12:50.506Z,21.39
2023-05-17T19:15:18.013Z,21.13
2023-05-17T19:17:48.099Z,21.01
2023-05-17T19:20:15.365Z,20.86
2023-05-17T19:22:45.640Z,21.06
2023-05-17T19:25:15.968Z,20.80
2023-05-17T19:27:46.518Z,20.77
2023-05-17T19:30:16.754Z,20.84
2023-05-17T19:32:56.967Z,20.77
2023-05-17T19:35:24.966Z,20.85
2023-05-17T19:37:52.009Z,20.72
2023-05-17T19:40:22.082Z,20.81
2023-05-17T19:42:49.583Z,20.72
2023-05-17T19:45:17.386Z,20.79
2023-05-17T19:47:44.922Z,20.69
2023-05-17T19:50:12.334Z,20.63
2023-05-17T19:52:39.964Z,20.60
2023-05-17T19:55:07.446Z,20.61
2023-05-17T19:57:34.486Z,20.51
2023-05-17T20:00:02.423Z,20.60
2023-05-17T20:02:31.890Z,20.58
2023-05-17T20:05:02.209Z,20.54
2023-05-17T20:07:30.609Z,20.51
2023-05-17T20:09:57.713Z,20.38
2023-05-17T20:12:25.963Z,20.46
2023-05-17T20:14:54.112Z,20.60
2023-05-17T20:17:21.514Z,20.44
2023-05-17T20:19:48.722Z,20.40
2023-05-17T20:22:15.867Z,20.36
2023-05-17T20:24:44.644Z,20.45
2023-05-17T20:27:12.944Z,20.36
2023-05-17T20:29:41.161Z,20.44
2023-05-17T20:32:08.722Z,20.33
2023-05-17T20:34:36.810Z,20.28
2023-05-17T20:37:04.086Z,20.31
2023-05-17T20:39:31.528Z,20.23
2023-05-17T20:42:01.257Z,20.22
2023-05-17T20:44:28.499Z,20.16
2023-05-17T20:46:56.945Z,20.15
2023-05-17T20:49:24.061Z,20.19
2023-05-17T20:51:51.171Z,20.11
2023-05-17T20:54:18.401Z,20.03
2023-05-17T20:56:45.869Z,19.94
2023-05-17T20:59:12.936Z,19.91
2023-05-17T21:01:41.684Z,19.90
2023-05-17T21:04:09.430Z,20.02
2023-05-17T21:06:36.835Z,20.01
2023-05-17T21:09:03.968Z,19.91
2023-05-17T21:11:31.446Z,19.89
2023-05-17T21:13:59.851Z,19.80
2023-05-17T21:16:27.202Z,19.82
2023-05-17T21:18:54.740Z,19.83
2023-05-17T21:21:21.824Z,19.74
2023-05-17T21:23:49.194Z,19.67
2023-05-17T21:26:16.313Z,19.50
2023-05-17T21:28:43.774Z,19.69
2023-05-17T21:31:10.950Z,19.57
2023-05-17T21:33:38.124Z,19.53
2023-05-17T21:36:05.384Z,19.62
2023-05-17T21:38:32.406Z,19.51
2023-05-17T21:40:59.517Z,19.34
2023-05-17T21:43:26.602Z,19.42
2023-05-17T21:45:54.135Z,19.42
2023-05-17T21:48:21.193Z,19.52
2023-05-17T21:50:49.855Z,19.56
2023-05-17T21:53:17.313Z,19.33
2023-05-17T21:56:00.722Z,19.18
2023-05-17T21:58:29.813Z,19.13
2023-05-17T22:00:57.139Z,19.10
2023-05-17T22:03:24.914Z,19.15
2023-05-17T22:05:52.691Z,18.99
2023-05-17T22:08:20.353Z,19.12
2023-05-17T22:10:47.567Z,18.87
2023-05-17T22:13:18.304Z,18.94
2023-05-17T22:15:45.542Z,18.88
2023-05-17T22:18:13.857Z,18.95
2023-05-17T22:20:41.351Z,18.92
2023-05-17T22:23:08.444Z,18.93
2023-05-17T22:25:36.131Z,19.01
2023-05-17T22:28:03.645Z,18.95
2023-05-17T22:30:31.519Z,18.91
2023-05-17T22:32:59.130Z,19.01
2023-05-17T22:35:26.225Z,19.00
2023-05-17T22:37:53.816Z,19.03
2023-05-17T22:40:21.845Z,19.24
2023-05-17T22:42:51.479Z,19.06
2023-05-17T22:45:18.607Z,18.82
2023-05-17T22:47:46.930Z,18.89
2023-05-17T22:50:15.723Z,18.77
2023-05-17T22:52:43.264Z,18.85
2023-05-17T22:55:11.178Z,18.94
2023-05-17T22:57:39.164Z,18.80
2023-05-17T23:00:09.212Z,18.93
2023-05-17T23:02:36.595Z,18.73
2023-05-17T23:05:04.004Z,18.69
2023-05-17T23:07:38.367Z,18.80
2023-05-17T23:10:08.330Z,18.81
2023-05-17T23:12:37.154Z,18.85
2023-05-17T23:15:06.127Z,18.68
2023-05-17T23:17:34.143Z,18.83
2023-05-17T23:20:09.826Z,18.95
2023-05-17T23:22:37.891Z,18.90
2023-05-17T23:25:06.381Z,19.00
2023-05-17T23:27:35.699Z,19.00
2023-05-17T23:30:04.716Z,18.94
2023-05-17T23:32:32.788Z,18.91
2023-05-17T23:35:06.132Z,18.84
2023-05-17T23:37:34.047Z,18.93
2023-05-17T23:40:01.730Z,18.84
2023-05-17T23:42:31.985Z,18.87
2023-05-17T23:45:00.635Z,18.74
2023-05-17T23:47:28.193Z,18.73
2023-05-17T23:49:56.444Z,18.72
2023-05-17T23:52:24.521Z,18.73
2023-05-17T23:54:52.028Z,18.76
2023-05-17T23:57:19.374Z,18.75
2023-05-17T23:59:46.767Z,18.72
